Terminal Aerodrome Forecast
Issued by NWS Omaha/Valley, NE

Home | Current Version | Previous Version | Text Only | Print | Product List | Glossary On
Versions: 1 2 3 4 5 6 7 8 9 10 11 12 13 14 15 16 17 18 19 20 21 22 23 24 25
000
FTUS43 KOAX 280410 AAD
TAFOMA
TAF AMD
KOMA 280410Z 2804/2824 VRB04KT P6SM SCT025
      TEMPO 2805/2807 BKN025
     FM280700 07004KT P6SM OVC025
      TEMPO 2810/2814 4SM BR OVC015
     FM281800 09007KT P6SM OVC025=

USA.gov is the U.S. government's official web portal to all federal, state and local government web resources and services.